createdAt,value
2017-09-20T00:02:07.506Z,26.80
2017-09-20T00:04:34.101Z,24.07
2017-09-20T00:07:00.753Z,27.10
2017-09-20T00:09:29.093Z,26.33
2017-09-20T00:11:55.675Z,31.53
2017-09-20T00:14:22.304Z,31.40
2017-09-20T00:16:59.295Z,31.10
2017-09-20T00:19:29.117Z,25.00
2017-09-20T00:21:55.715Z,26.90
2017-09-20T00:24:22.311Z,28.87
2017-09-20T00:26:48.930Z,28.33
2017-09-20T00:29:19.325Z,33.83
2017-09-20T00:31:45.909Z,36.63
2017-09-20T00:34:19.102Z,30.70
2017-09-20T00:36:48.796Z,29.87
2017-09-20T00:39:21.029Z,33.10
2017-09-20T00:41:47.618Z,34.70
2017-09-20T00:44:20.354Z,33.60
2017-09-20T00:46:46.971Z,33.50
2017-09-20T00:49:13.549Z,30.80
2017-09-20T00:51:40.198Z,29.80
2017-09-20T00:54:06.781Z,33.57
2017-09-20T00:56:33.373Z,32.30
2017-09-20T00:58:59.996Z,32.33
2017-09-20T01:01:26.601Z,39.10
2017-09-20T01:03:53.188Z,30.13
2017-09-20T01:06:19.784Z,29.83
2017-09-20T01:08:46.365Z,39.20
2017-09-20T01:11:12.957Z,30.47
2017-09-20T01:13:39.688Z,30.70
2017-09-20T01:16:06.277Z,33.33
2017-09-20T01:18:32.855Z,27.83
2017-09-20T01:21:05.388Z,30.73
2017-09-20T01:23:35.725Z,31.17
2017-09-20T01:26:02.310Z,34.77
2017-09-20T01:28:28.905Z,29.20
2017-09-20T01:30:55.485Z,31.77
2017-09-20T01:33:22.073Z,31.37
2017-09-20T01:35:48.677Z,31.80
2017-09-20T01:38:15.276Z,35.30
2017-09-20T01:40:41.875Z,33.63
2017-09-20T01:43:08.469Z,28.20
2017-09-20T01:45:35.078Z,24.20
2017-09-20T01:48:01.669Z,29.73
2017-09-20T01:50:28.277Z,32.00
2017-09-20T01:52:54.860Z,31.43
2017-09-20T01:55:21.462Z,37.53
2017-09-20T01:57:48.054Z,37.73
2017-09-20T02:00:14.641Z,33.57
2017-09-20T02:02:41.221Z,37.80
2017-09-20T02:05:07.821Z,35.27
2017-09-20T02:07:34.401Z,39.93
2017-09-20T02:10:00.989Z,44.60
2017-09-20T02:12:27.610Z,38.10
2017-09-20T02:14:54.194Z,39.87
2017-09-20T02:17:20.773Z,38.93
2017-09-20T02:19:47.388Z,43.50
2017-09-20T02:22:13.968Z,41.63
2017-09-20T02:24:40.557Z,38.90
2017-09-20T02:27:07.153Z,36.80
2017-09-20T02:29:33.782Z,37.20
2017-09-20T02:32:00.365Z,37.83
2017-09-20T02:34:26.969Z,36.20
2017-09-20T02:36:53.554Z,33.40
2017-09-20T02:39:20.136Z,33.23
2017-09-20T02:41:46.738Z,37.40
2017-09-20T02:44:13.324Z,39.27
2017-09-20T02:46:39.960Z,38.50
2017-09-20T02:49:06.557Z,33.83
2017-09-20T02:51:33.150Z,36.20
2017-09-20T02:53:59.729Z,35.47
2017-09-20T02:56:26.320Z,43.80
2017-09-20T02:58:52.901Z,40.27
2017-09-20T03:01:19.493Z,39.27
2017-09-20T03:03:46.093Z,41.27
2017-09-20T03:06:12.676Z,37.87
2017-09-20T03:08:39.273Z,37.17
2017-09-20T03:11:05.874Z,35.83
2017-09-20T03:13:32.545Z,36.47
2017-09-20T03:15:59.125Z,39.10
2017-09-20T03:18:25.724Z,38.77
2017-09-20T03:20:52.310Z,34.77
2017-09-20T03:23:18.917Z,41.53
2017-09-20T03:25:45.514Z,37.40
2017-09-20T03:28:12.109Z,35.90
2017-09-20T03:30:38.710Z,38.27
2017-09-20T03:33:05.321Z,39.83
2017-09-20T03:35:31.902Z,38.63
2017-09-20T03:37:58.491Z,37.80
2017-09-20T03:40:25.114Z,40.63
2017-09-20T03:42:51.699Z,34.50
2017-09-20T03:45:18.273Z,35.50
2017-09-20T03:47:44.872Z,35.97
2017-09-20T03:50:11.461Z,35.07
2017-09-20T03:52:38.046Z,34.00
2017-09-20T03:55:04.644Z,34.30
2017-09-20T03:57:31.223Z,38.37
2017-09-20T03:59:57.826Z,32.70
2017-09-20T04:02:24.421Z,34.10
2017-09-20T04:04:51.075Z,34.17
2017-09-20T04:07:17.641Z,39.67
2017-09-20T04:09:44.261Z,38.43
2017-09-20T04:12:10.842Z,37.03
2017-09-20T04:14:37.422Z,41.47
2017-09-20T04:17:04.023Z,42.03
2017-09-20T04:19:30.616Z,32.90
2017-09-20T04:21:57.198Z,37.23
2017-09-20T04:24:23.802Z,34.63
2017-09-20T04:26:50.393Z,38.90
2017-09-20T04:29:17.006Z,36.00
2017-09-20T04:31:43.643Z,38.53
2017-09-20T04:34:10.236Z,40.87
2017-09-20T04:36:36.817Z,42.43
2017-09-20T04:39:03.439Z,39.60
2017-09-20T04:41:30.011Z,40.17
2017-09-20T04:43:56.596Z,38.60
2017-09-20T04:46:23.202Z,36.60
2017-09-20T04:48:49.781Z,38.00
2017-09-20T04:51:16.365Z,40.93
2017-09-20T04:53:42.961Z,38.83
2017-09-20T04:56:09.553Z,37.53
2017-09-20T04:58:36.133Z,36.73
2017-09-20T05:01:02.738Z,39.00
2017-09-20T05:03:29.329Z,41.80
2017-09-20T05:05:55.918Z,38.60
2017-09-20T05:08:22.506Z,37.50
2017-09-20T05:10:49.089Z,37.90
2017-09-20T05:13:15.689Z,41.93
2017-09-20T05:15:42.317Z,42.50
2017-09-20T05:18:08.889Z,43.43
2017-09-20T05:20:35.481Z,46.77
2017-09-20T05:23:02.073Z,48.90
2017-09-20T05:25:28.654Z,44.63
2017-09-20T05:27:55.275Z,45.20
2017-09-20T05:30:21.868Z,46.00
2017-09-20T05:32:48.473Z,51.40
2017-09-20T05:35:15.084Z,46.67
2017-09-20T05:37:41.690Z,36.77
2017-09-20T05:40:08.273Z,50.30
2017-09-20T05:42:34.862Z,54.57
2017-09-20T05:45:01.478Z,61.40
2017-09-20T05:47:28.065Z,48.97
2017-09-20T05:49:54.696Z,50.63
2017-09-20T05:52:21.281Z,61.03
2017-09-20T05:54:47.861Z,57.97
2017-09-20T05:57:14.449Z,62.53
2017-09-20T05:59:41.051Z,59.50
2017-09-20T06:02:07.660Z,58.13
2017-09-20T06:04:34.228Z,55.00
2017-09-20T06:07:00.859Z,63.00
2017-09-20T06:09:27.441Z,61.13
2017-09-20T06:11:54.085Z,56.53
2017-09-20T06:14:20.685Z,66.93
2017-09-20T06:16:47.269Z,59.93
2017-09-20T06:19:13.851Z,52.00
2017-09-20T06:21:40.444Z,50.33
2017-09-20T06:24:07.578Z,64.73
2017-09-20T06:26:35.993Z,58.10
2017-09-20T06:29:02.998Z,59.87
2017-09-20T06:31:29.903Z,64.70
2017-09-20T06:33:56.570Z,65.40
2017-09-20T06:36:23.170Z,63.30
2017-09-20T06:38:49.760Z,63.50
2017-09-20T06:41:16.333Z,65.27
2017-09-20T06:43:42.924Z,66.90
2017-09-20T06:46:09.536Z,61.43
2017-09-20T06:48:36.108Z,70.37
2017-09-20T06:51:02.807Z,54.97
2017-09-20T06:53:29.384Z,60.43
2017-09-20T06:55:55.965Z,63.10
2017-09-20T06:58:22.558Z,63.77
2017-09-20T07:00:49.137Z,58.37
2017-09-20T07:03:15.729Z,66.00
2017-09-20T07:05:42.325Z,65.77
2017-09-20T07:08:08.968Z,61.40
2017-09-20T07:10:35.549Z,64.00
2017-09-20T07:13:02.147Z,66.33
2017-09-20T07:15:28.796Z,59.30
2017-09-20T07:17:55.392Z,69.10
2017-09-20T07:20:21.983Z,80.80
2017-09-20T07:22:48.577Z,74.40
2017-09-20T07:25:15.189Z,66.50
2017-09-20T07:27:41.893Z,71.60
2017-09-20T07:30:08.461Z,61.63
2017-09-20T07:32:35.049Z,59.50
2017-09-20T07:35:01.650Z,66.17
2017-09-20T07:37:28.233Z,65.93
2017-09-20T07:39:54.817Z,69.30
2017-09-20T07:42:21.410Z,63.60
2017-09-20T07:44:47.994Z,70.63
2017-09-20T07:47:14.578Z,71.53
2017-09-20T07:49:41.172Z,69.57
2017-09-20T07:52:07.753Z,77.43
2017-09-20T07:54:34.333Z,64.10
2017-09-20T07:57:00.955Z,71.63
2017-09-20T07:59:27.550Z,73.77
2017-09-20T08:01:54.168Z,75.87
2017-09-20T08:04:20.778Z,73.30
2017-09-20T08:06:47.360Z,68.70
2017-09-20T08:09:13.974Z,63.97
2017-09-20T08:11:40.576Z,72.23
2017-09-20T08:14:07.171Z,57.80
2017-09-20T08:16:33.746Z,64.30
2017-09-20T08:19:00.349Z,57.37
2017-09-20T08:21:26.965Z,65.47
2017-09-20T08:23:53.556Z,62.40
2017-09-20T08:26:20.150Z,67.70
2017-09-20T08:28:46.733Z,77.03
2017-09-20T08:31:13.316Z,75.50
2017-09-20T08:33:39.913Z,70.37
2017-09-20T08:36:06.500Z,78.77
2017-09-20T08:38:33.179Z,73.27
2017-09-20T08:40:59.776Z,85.63
2017-09-20T08:43:26.361Z,87.77
2017-09-20T08:45:52.951Z,75.00
2017-09-20T08:48:19.577Z,86.13
2017-09-20T08:50:46.955Z,75.77
2017-09-20T08:53:13.537Z,76.50
2017-09-20T08:55:40.141Z,75.60
2017-09-20T08:58:06.742Z,69.13
2017-09-20T09:00:33.345Z,69.40
2017-09-20T09:02:59.973Z,63.73
2017-09-20T09:05:26.557Z,75.37
2017-09-20T09:07:53.146Z,80.13
2017-09-20T09:10:19.786Z,75.90
2017-09-20T09:12:46.357Z,75.60
2017-09-20T09:15:13.006Z,81.20
2017-09-20T09:17:39.689Z,79.13
2017-09-20T09:20:06.293Z,80.57
2017-09-20T09:22:32.913Z,83.77
2017-09-20T09:24:59.530Z,95.77
2017-09-20T09:27:26.753Z,78.77
2017-09-20T09:29:53.343Z,68.37
2017-09-20T09:32:20.034Z,106.27
2017-09-20T09:34:46.653Z,85.60
2017-09-20T09:37:19.177Z,94.70
2017-09-20T09:39:45.771Z,84.00
2017-09-20T09:42:12.353Z,77.70
2017-09-20T09:44:38.963Z,68.30
2017-09-20T09:47:05.541Z,76.77
2017-09-20T09:49:32.133Z,76.63
2017-09-20T09:51:58.723Z,77.77
2017-09-20T09:54:25.321Z,76.50
2017-09-20T09:56:51.907Z,72.60
2017-09-20T09:59:18.517Z,79.57
2017-09-20T10:01:45.105Z,79.23
2017-09-20T10:04:11.702Z,71.57
2017-09-20T10:06:38.309Z,71.40
2017-09-20T10:09:12.474Z,64.20
2017-09-20T10:11:39.071Z,69.93
2017-09-20T10:14:05.651Z,64.30
2017-09-20T10:16:32.234Z,61.60
2017-09-20T10:18:58.853Z,63.23
2017-09-20T10:21:25.437Z,51.53
2017-09-20T10:23:52.066Z,60.37
2017-09-20T10:26:18.679Z,61.20
2017-09-20T10:28:45.262Z,51.40
2017-09-20T10:31:11.877Z,49.20
2017-09-20T10:33:38.457Z,53.93
2017-09-20T10:36:05.037Z,51.97
2017-09-20T10:38:31.634Z,46.07
2017-09-20T10:40:58.242Z,50.10
2017-09-20T10:43:24.830Z,47.37
2017-09-20T10:45:51.411Z,53.63
2017-09-20T10:48:18.013Z,55.30
2017-09-20T10:50:44.598Z,54.90
2017-09-20T10:53:11.202Z,63.23
2017-09-20T10:55:37.830Z,48.60
2017-09-20T10:58:04.413Z,54.43
2017-09-20T11:00:30.997Z,53.73
2017-09-20T11:02:57.592Z,44.63
2017-09-20T11:05:24.173Z,42.40
2017-09-20T11:07:50.861Z,36.83
2017-09-20T11:10:17.441Z,40.57
2017-09-20T11:12:44.025Z,37.83
2017-09-20T11:15:10.614Z,33.77
2017-09-20T11:17:37.213Z,32.00
2017-09-20T11:20:03.798Z,27.43
2017-09-20T11:22:30.380Z,20.60
2017-09-20T11:24:56.985Z,18.17
2017-09-20T11:27:23.605Z,18.67
2017-09-20T11:29:50.189Z,21.37
2017-09-20T11:32:16.788Z,21.30
2017-09-20T11:34:43.377Z,21.83
2017-09-20T11:37:09.961Z,16.83
2017-09-20T11:39:36.553Z,19.33
2017-09-20T11:42:03.136Z,19.07
2017-09-20T11:44:29.745Z,14.80
2017-09-20T11:46:56.342Z,16.37
2017-09-20T11:49:22.933Z,13.17
2017-09-20T11:51:49.538Z,11.00
2017-09-20T11:54:16.132Z,13.77
2017-09-20T11:56:42.745Z,16.10
2017-09-20T11:59:09.318Z,14.83
2017-09-20T12:01:35.912Z,12.53
2017-09-20T12:04:02.510Z,16.80
2017-09-20T12:06:29.089Z,10.63
2017-09-20T12:08:55.694Z,13.53
2017-09-20T12:11:22.286Z,13.53
2017-09-20T12:13:49.229Z,11.73
2017-09-20T12:16:15.910Z,13.23
2017-09-20T12:18:42.456Z,11.47
2017-09-20T12:21:09.034Z,13.73
2017-09-20T12:23:35.644Z,15.93
2017-09-20T12:26:02.210Z,11.27
2017-09-20T12:28:28.794Z,13.33
2017-09-20T12:30:55.385Z,12.13
2017-09-20T12:33:21.961Z,13.40
2017-09-20T12:35:48.536Z,11.03
2017-09-20T12:38:15.129Z,11.47
2017-09-20T12:40:41.709Z,10.57
2017-09-20T12:43:08.325Z,10.77
2017-09-20T12:45:34.896Z,11.90
2017-09-20T12:48:01.477Z,9.77
2017-09-20T12:50:28.058Z,9.20
2017-09-20T12:52:54.641Z,9.00
2017-09-20T12:55:21.215Z,9.93
2017-09-20T12:57:47.781Z,7.00
2017-09-20T13:00:14.376Z,8.53
2017-09-20T13:02:40.945Z,9.77
2017-09-20T13:05:07.516Z,12.13
2017-09-20T13:07:34.165Z,8.50
2017-09-20T13:10:00.737Z,8.40
2017-09-20T13:12:27.309Z,6.50
2017-09-20T13:14:53.983Z,9.67
2017-09-20T13:17:20.556Z,8.63
2017-09-20T13:19:47.134Z,6.90
2017-09-20T13:22:13.739Z,6.70
2017-09-20T13:24:40.298Z,6.47
2017-09-20T13:27:06.864Z,6.90
2017-09-20T13:29:33.449Z,6.73
2017-09-20T13:32:00.030Z,6.63
2017-09-20T13:34:26.601Z,8.53
2017-09-20T13:36:53.203Z,7.13
2017-09-20T13:39:19.781Z,5.50
2017-09-20T13:41:46.424Z,5.67
2017-09-20T13:44:12.997Z,4.97
2017-09-20T13:46:39.586Z,5.13
2017-09-20T13:49:06.158Z,7.13
2017-09-20T13:51:32.802Z,5.47
2017-09-20T13:53:59.356Z,6.97
2017-09-20T13:56:25.936Z,6.23
2017-09-20T13:58:52.526Z,8.13
2017-09-20T14:01:19.099Z,4.30
2017-09-20T14:03:45.677Z,4.30
2017-09-20T14:06:12.410Z,4.57
2017-09-20T14:08:38.981Z,3.80
2017-09-20T14:11:06.760Z,2.90
2017-09-20T14:13:33.345Z,3.33
2017-09-20T14:15:59.981Z,3.07
2017-09-20T14:18:26.553Z,3.23
2017-09-20T14:20:53.244Z,3.70
2017-09-20T14:23:29.756Z,3.00
2017-09-20T14:25:59.617Z,4.53
2017-09-20T14:28:26.193Z,3.20
2017-09-20T14:30:52.785Z,2.90
2017-09-20T14:33:19.364Z,2.60
2017-09-20T14:35:45.945Z,3.10
2017-09-20T14:38:12.517Z,2.83
2017-09-20T14:40:39.105Z,2.60
2017-09-20T14:43:05.681Z,6.33
2017-09-20T14:45:32.253Z,4.50
2017-09-20T14:47:58.847Z,2.60
2017-09-20T14:50:25.413Z,2.67
2017-09-20T14:52:51.994Z,5.07
2017-09-20T14:55:18.625Z,3.43
2017-09-20T14:57:45.206Z,5.80
2017-09-20T15:00:18.130Z,4.80
2017-09-20T15:02:44.680Z,5.63
2017-09-20T15:05:11.257Z,9.17
2017-09-20T15:07:37.863Z,6.83
2017-09-20T15:10:04.432Z,9.23
2017-09-20T15:12:31.005Z,4.70
2017-09-20T15:14:57.584Z,6.30
2017-09-20T15:17:24.183Z,5.07
2017-09-20T15:19:50.797Z,5.90
2017-09-20T15:22:17.385Z,5.47
2017-09-20T15:24:43.962Z,7.43
2017-09-20T15:27:10.528Z,6.23
2017-09-20T15:29:37.130Z,6.43
2017-09-20T15:32:03.717Z,7.50
2017-09-20T15:34:32.103Z,7.40
2017-09-20T15:36:58.709Z,7.87
2017-09-20T15:39:25.282Z,6.53
2017-09-20T15:41:51.929Z,4.53
2017-09-20T15:44:18.513Z,8.33
2017-09-20T15:46:45.232Z,8.70
2017-09-20T15:49:11.866Z,3.70
2017-09-20T15:51:38.461Z,4.00
2017-09-20T15:54:05.032Z,4.47
2017-09-20T15:56:31.613Z,6.53
2017-09-20T15:58:58.209Z,5.07
2017-09-20T16:01:24.796Z,11.43
2017-09-20T16:03:51.357Z,8.97
2017-09-20T16:06:17.977Z,6.90
2017-09-20T16:08:44.554Z,7.00
2017-09-20T16:11:11.126Z,3.27
2017-09-20T16:13:37.728Z,4.03
2017-09-20T16:16:04.292Z,3.90
2017-09-20T16:18:30.861Z,3.70
2017-09-20T16:20:57.454Z,3.50
2017-09-20T16:23:24.029Z,4.30
2017-09-20T16:25:50.613Z,5.73
2017-09-20T16:28:17.197Z,4.67
2017-09-20T16:30:43.799Z,6.03
2017-09-20T16:33:10.412Z,5.10
2017-09-20T16:35:47.373Z,5.20
2017-09-20T16:38:13.973Z,4.20
2017-09-20T16:40:40.565Z,8.13
2017-09-20T16:43:07.150Z,7.33
2017-09-20T16:45:33.729Z,4.30
2017-09-20T16:48:00.306Z,4.17
2017-09-20T16:50:26.897Z,11.23
2017-09-20T16:52:53.478Z,3.80
2017-09-20T16:55:20.081Z,5.23
2017-09-20T16:57:46.727Z,7.90
2017-09-20T17:00:13.314Z,4.50
2017-09-20T17:02:39.902Z,5.10
2017-09-20T17:05:06.492Z,4.37
2017-09-20T17:07:33.072Z,5.20
2017-09-20T17:09:59.653Z,5.70
2017-09-20T17:12:26.245Z,5.93
2017-09-20T17:14:52.853Z,5.90
2017-09-20T17:17:19.430Z,4.10
2017-09-20T17:19:46.025Z,5.07
2017-09-20T17:22:12.626Z,8.53
2017-09-20T17:24:39.204Z,5.63
2017-09-20T17:27:05.788Z,3.70
2017-09-20T17:29:32.394Z,4.03
2017-09-20T17:31:58.992Z,6.63
2017-09-20T17:34:27.290Z,6.97
2017-09-20T17:36:56.822Z,4.73
2017-09-20T17:39:23.446Z,9.57
2017-09-20T17:41:50.037Z,4.00
2017-09-20T17:44:16.649Z,5.07
2017-09-20T17:46:43.276Z,8.03
2017-09-20T17:49:13.249Z,13.63
2017-09-20T17:51:39.826Z,5.57
2017-09-20T17:54:06.409Z,6.53
2017-09-20T17:56:33.003Z,4.90
2017-09-20T17:58:59.578Z,5.30
2017-09-20T18:01:26.175Z,14.20
2017-09-20T18:03:52.769Z,7.73
2017-09-20T18:06:19.389Z,9.27
2017-09-20T18:08:45.958Z,5.40
2017-09-20T18:11:12.561Z,5.53
2017-09-20T18:13:39.137Z,6.80
2017-09-20T18:16:06.542Z,6.10
2017-09-20T18:18:33.129Z,4.60
2017-09-20T18:20:59.701Z,4.73
2017-09-20T18:23:26.273Z,4.50
2017-09-20T18:25:52.881Z,4.20
2017-09-20T18:28:19.457Z,7.23
2017-09-20T18:30:46.654Z,8.60
2017-09-20T18:33:13.243Z,8.87
2017-09-20T18:35:39.821Z,5.80
2017-09-20T18:38:06.404Z,5.77
2017-09-20T18:40:32.993Z,5.07
2017-09-20T18:42:59.570Z,8.90
2017-09-20T18:45:26.151Z,4.57
2017-09-20T18:47:52.745Z,4.97
2017-09-20T18:50:19.318Z,8.40
2017-09-20T18:52:45.898Z,5.50
2017-09-20T18:55:12.506Z,4.70
2017-09-20T18:57:39.080Z,7.00
2017-09-20T19:00:05.659Z,5.80
2017-09-20T19:02:32.250Z,5.03
2017-09-20T19:04:58.820Z,5.73
2017-09-20T19:07:25.405Z,6.50
2017-09-20T19:09:51.997Z,5.70
2017-09-20T19:12:18.577Z,6.50
2017-09-20T19:14:45.160Z,5.30
2017-09-20T19:17:11.749Z,9.37
2017-09-20T19:19:38.333Z,10.53
2017-09-20T19:22:04.933Z,8.80
2017-09-20T19:24:31.532Z,6.93
2017-09-20T19:26:58.113Z,10.53
2017-09-20T19:29:24.738Z,8.70
2017-09-20T19:31:51.367Z,7.40
2017-09-20T19:34:17.945Z,8.80
2017-09-20T19:36:46.119Z,5.73
2017-09-20T19:39:12.699Z,9.93
2017-09-20T19:41:39.276Z,6.30
2017-09-20T19:44:05.857Z,10.47
2017-09-20T19:46:32.469Z,12.93
2017-09-20T19:48:59.045Z,6.57
2017-09-20T19:51:25.621Z,8.60
2017-09-20T19:53:52.228Z,7.13
2017-09-20T19:56:18.801Z,6.97
2017-09-20T19:58:45.397Z,6.10
2017-09-20T20:01:11.989Z,6.80
2017-09-20T20:03:38.568Z,6.30
2017-09-20T20:06:05.193Z,5.87
2017-09-20T20:08:31.788Z,7.93
2017-09-20T20:10:58.373Z,15.07
2017-09-20T20:13:24.961Z,12.17
2017-09-20T20:15:51.586Z,8.67
2017-09-20T20:18:18.166Z,10.10
2017-09-20T20:20:44.741Z,7.40
2017-09-20T20:23:11.330Z,6.57
2017-09-20T20:25:37.913Z,10.23
2017-09-20T20:28:04.505Z,11.20
2017-09-20T20:30:31.105Z,7.57
2017-09-20T20:32:57.686Z,10.53
2017-09-20T20:35:24.267Z,6.87
2017-09-20T20:37:50.882Z,7.73
2017-09-20T20:40:17.461Z,7.33
2017-09-20T20:42:44.057Z,6.70
2017-09-20T20:45:10.630Z,9.03
2017-09-20T20:47:37.202Z,8.90
2017-09-20T20:50:03.786Z,12.07
2017-09-20T20:52:30.372Z,8.30
2017-09-20T20:54:56.981Z,7.67
2017-09-20T20:57:23.561Z,9.53
2017-09-20T20:59:50.153Z,9.10
2017-09-20T21:02:16.734Z,12.77
2017-09-20T21:04:43.305Z,7.13
2017-09-20T21:07:09.897Z,9.63
2017-09-20T21:09:36.497Z,7.33
2017-09-20T21:12:03.072Z,9.13
2017-09-20T21:14:29.665Z,9.97
2017-09-20T21:16:56.245Z,9.07
2017-09-20T21:19:22.840Z,9.03
2017-09-20T21:21:49.421Z,7.63
2017-09-20T21:24:16.029Z,10.70
2017-09-20T21:26:42.613Z,9.63
2017-09-20T21:29:09.196Z,8.70
2017-09-20T21:31:35.773Z,10.17
2017-09-20T21:34:02.349Z,9.13
2017-09-20T21:36:28.995Z,10.90
2017-09-20T21:38:55.552Z,15.03
2017-09-20T21:41:22.137Z,11.77
2017-09-20T21:43:48.721Z,7.90
2017-09-20T21:46:15.301Z,10.13
2017-09-20T21:48:41.945Z,11.90
2017-09-20T21:51:08.525Z,8.97
2017-09-20T21:53:35.148Z,11.20
2017-09-20T21:56:01.729Z,11.67
2017-09-20T21:58:28.318Z,11.37
2017-09-20T22:00:54.905Z,7.80
2017-09-20T22:03:21.502Z,12.70
2017-09-20T22:05:48.097Z,7.77
2017-09-20T22:08:14.685Z,16.27
2017-09-20T22:10:41.302Z,9.37
2017-09-20T22:13:07.943Z,11.53
2017-09-20T22:15:40.512Z,8.83
2017-09-20T22:18:12.953Z,9.83
2017-09-20T22:20:45.489Z,8.77
2017-09-20T22:23:17.939Z,10.30
2017-09-20T22:25:50.345Z,9.40
2017-09-20T22:28:16.921Z,13.30
2017-09-20T22:30:43.513Z,14.27
2017-09-20T22:33:10.089Z,13.00
2017-09-20T22:35:36.674Z,10.57
2017-09-20T22:38:03.272Z,17.60
2017-09-20T22:40:29.850Z,11.10
2017-09-20T22:42:56.477Z,8.80
2017-09-20T22:45:23.097Z,13.20
2017-09-20T22:47:49.768Z,9.90
2017-09-20T22:50:16.333Z,11.80
2017-09-20T22:52:42.937Z,14.83
2017-09-20T22:55:09.517Z,10.50
2017-09-20T22:57:36.110Z,12.93
2017-09-20T23:00:02.713Z,9.17
2017-09-20T23:02:33.132Z,11.07
2017-09-20T23:04:59.713Z,10.70
2017-09-20T23:07:26.321Z,14.47
2017-09-20T23:09:52.916Z,9.00
2017-09-20T23:12:19.490Z,13.30
2017-09-20T23:14:46.076Z,12.10
2017-09-20T23:17:12.656Z,9.93
2017-09-20T23:19:39.239Z,8.97
2017-09-20T23:22:05.822Z,9.83
2017-09-20T23:24:32.435Z,10.63
2017-09-20T23:26:59.049Z,16.97
2017-09-20T23:29:25.652Z,8.70
2017-09-20T23:31:52.261Z,8.60
2017-09-20T23:34:18.821Z,11.83
2017-09-20T23:36:45.437Z,10.10
2017-09-20T23:39:12.021Z,12.07
2017-09-20T23:41:38.620Z,16.70
2017-09-20T23:44:05.208Z,11.43
2017-09-20T23:46:31.793Z,8.00
2017-09-20T23:48:58.378Z,11.63
2017-09-20T23:51:25.008Z,11.30
2017-09-20T23:53:51.575Z,12.30
2017-09-20T23:56:18.166Z,11.87
2017-09-20T23:58:44.782Z,10.73
